Time;durP1;ratioP1;P1;durP2;ratioP2;P2;SDS_P1;SDS_P2;PMS_P1;PMS_P2;Temp;Humidity;BMP_temperature;BMP_pressure;BME280_temperature;BME280_humidity;BME280_pressure;Samples;Min_cycle;Max_cycle;Signal;HPM_P1;HPM_P2
2022/04/05 00:00:46;;;;;;;8.93;6.65;;;11.00;80.20;;;;;;5088937;28;20074;-79
2022/04/05 00:03:12;;;;;;;9.93;6.85;;;10.90;80.70;;;;;;5063631;28;20036;-79
2022/04/05 00:05:37;;;;;;;10.82;7.25;;;10.90;80.80;;;;;;5058067;28;20027;-80
2022/04/05 00:08:04;;;;;;;9.23;6.68;;;10.90;80.90;;;;;;5076039;28;20028;-79
2022/04/05 00:10:29;;;;;;;10.77;7.03;;;10.80;81.50;;;;;;5066281;28;20052;-80
2022/04/05 00:12:55;;;;;;;11.10;7.05;;;10.80;81.80;;;;;;5055976;28;20025;-80
2022/04/05 00:15:21;;;;;;;10.55;6.63;;;10.80;81.60;;;;;;5055943;28;20045;-80
2022/04/05 00:17:46;;;;;;;12.20;7.35;;;10.80;82.40;;;;;;5037756;28;20033;-80
2022/04/05 00:20:13;;;;;;;11.63;7.03;;;10.80;82.80;;;;;;5055825;28;20036;-80
2022/04/05 00:22:38;;;;;;;11.23;7.47;;;10.80;82.40;;;;;;5037789;28;20473;-80
2022/04/05 00:25:05;;;;;;;10.52;7.80;;;10.80;82.50;;;;;;5055716;28;20075;-79
2022/04/05 00:27:30;;;;;;;12.15;7.35;;;10.70;82.80;;;;;;5055653;28;20092;-80
2022/04/05 00:29:56;;;;;;;10.18;7.18;;;10.70;83.30;;;;;;5055577;28;20605;-80
2022/04/05 00:32:22;;;;;;;10.57;7.63;;;10.70;83.60;;;;;;5055671;28;20033;-80
2022/04/05 00:34:48;;;;;;;17.27;7.72;;;10.70;83.70;;;;;;5055582;28;20021;-80
2022/04/05 00:37:13;;;;;;;16.27;8.05;;;10.80;83.20;;;;;;5055633;28;20025;-80
2022/04/05 00:39:39;;;;;;;9.30;6.50;;;10.80;83.30;;;;;;5037568;28;20029;-80
2022/04/05 00:42:05;;;;;;;10.65;6.85;;;10.70;83.60;;;;;;5055278;28;20111;-80
2022/04/05 00:44:30;;;;;;;10.95;6.93;;;10.80;83.60;;;;;;5055547;28;20037;-80
2022/04/05 00:47:00;;;;;;;11.70;7.03;;;10.70;84.40;;;;;;5039807;28;20025;-80
2022/04/05 00:49:33;;;;;;;10.55;7.20;;;10.70;84.20;;;;;;5042017;28;20450;-80
2022/04/05 00:51:59;;;;;;;11.10;6.43;;;10.70;84.50;;;;;;5055344;28;20052;-80
2022/04/05 00:54:27;;;;;;;13.15;7.72;;;10.80;84.20;;;;;;5068557;28;20080;-80
2022/04/05 00:56:56;;;;;;;12.85;7.57;;;10.80;83.90;;;;;;5075062;28;20041;-80
2022/04/05 00:59:25;;;;;;;11.73;8.10;;;10.80;84.10;;;;;;5073944;28;20053;-79
2022/04/05 01:01:55;;;;;;;13.25;7.82;;;10.80;83.90;;;;;;5077313;28;20032;-80
2022/04/05 01:04:22;;;;;;;15.05;8.75;;;10.90;83.70;;;;;;5069914;28;20025;-79
2022/04/05 01:06:49;;;;;;;15.40;8.60;;;10.90;83.40;;;;;;5055203;28;20036;-80
2022/04/05 01:09:15;;;;;;;15.45;9.30;;;10.90;83.80;;;;;;5055191;28;20052;-79
2022/04/05 01:11:40;;;;;;;12.02;7.78;;;10.80;84.40;;;;;;5037087;28;20426;-79
2022/04/05 01:14:06;;;;;;;16.23;9.32;;;10.90;84.20;;;;;;5069220;28;20062;-79
2022/04/05 01:16:33;;;;;;;11.77;7.68;;;10.90;84.20;;;;;;5079510;28;20028;-79
2022/04/05 01:18:59;;;;;;;18.40;8.88;;;10.90;84.10;;;;;;5075532;28;20086;-79
2022/04/05 01:21:24;;;;;;;14.00;8.30;;;10.90;84.40;;;;;;5059121;28;20029;-79
2022/04/05 01:24:06;;;;;;;14.35;7.88;;;10.90;84.10;;;;;;5041284;28;20499;-80
2022/04/05 01:26:44;;;;;;;18.50;9.18;;;10.90;84.20;;;;;;5040933;28;20450;-80
2022/04/05 01:29:10;;;;;;;18.67;8.43;;;11.00;84.10;;;;;;5059007;28;20709;-79
2022/04/05 01:31:43;;;;;;;16.42;8.95;;;10.90;84.20;;;;;;5041009;28;20025;-79
2022/04/05 01:34:09;;;;;;;15.73;8.60;;;11.00;84.20;;;;;;5043046;28;20033;-79
2022/04/05 01:36:44;;;;;;;16.35;8.20;;;10.90;84.50;;;;;;5078913;28;20021;-79
2022/04/05 01:39:11;;;;;;;18.63;9.45;;;10.90;84.40;;;;;;5060788;28;20032;-79
2022/04/05 01:41:37;;;;;;;18.52;8.95;;;11.00;84.30;;;;;;5067057;28;20032;-79
2022/04/05 01:44:05;;;;;;;15.00;9.10;;;11.00;83.90;;;;;;5058845;28;20029;-79
2022/04/05 01:46:31;;;;;;;18.52;9.00;;;11.10;83.80;;;;;;5058690;28;20033;-79
2022/04/05 01:48:57;;;;;;;18.60;9.60;;;11.10;83.60;;;;;;5077728;28;20509;-79
2022/04/05 01:51:22;;;;;;;16.83;9.30;;;11.10;83.70;;;;;;5077347;28;20051;-79
2022/04/05 01:53:48;;;;;;;16.63;8.80;;;11.10;83.70;;;;;;5078531;28;20031;-79
2022/04/05 01:56:14;;;;;;;17.83;9.20;;;11.20;83.70;;;;;;5060328;28;20154;-79
2022/04/05 01:58:39;;;;;;;18.25;9.52;;;11.00;84.60;;;;;;5060592;28;20029;-79
2022/04/05 02:01:05;;;;;;;18.38;9.35;;;11.00;84.20;;;;;;5041440;28;20029;-79
2022/04/05 02:03:31;;;;;;;28.30;11.02;;;11.00;84.30;;;;;;5058232;28;20032;-79
2022/04/05 02:05:57;;;;;;;22.33;10.18;;;11.00;84.50;;;;;;5040408;28;20028;-79
2022/04/05 02:08:23;;;;;;;19.80;10.15;;;11.00;84.30;;;;;;5068589;28;20024;-79
2022/04/05 02:10:49;;;;;;;16.55;8.38;;;11.00;84.50;;;;;;5076888;28;20064;-80
2022/04/05 02:13:15;;;;;;;21.42;10.38;;;11.10;84.20;;;;;;5040219;28;20025;-79
2022/04/05 02:15:40;;;;;;;21.42;10.27;;;11.00;84.50;;;;;;5058100;28;20458;-79
2022/04/05 02:18:06;;;;;;;28.13;12.00;;;11.10;84.10;;;;;;5040081;28;20410;-79
2022/04/05 02:20:32;;;;;;;20.25;9.95;;;11.10;84.60;;;;;;5058141;28;20389;-79
2022/04/05 02:22:58;;;;;;;21.08;9.85;;;11.10;84.50;;;;;;5023669;28;20103;-79
2022/04/05 02:25:24;;;;;;;22.98;11.10;;;11.20;84.20;;;;;;5057159;28;20037;-79
2022/04/05 02:27:49;;;;;;;18.35;9.48;;;11.20;84.40;;;;;;5057960;28;20105;-79
2022/04/05 02:30:15;;;;;;;19.80;11.43;;;11.10;84.30;;;;;;5057975;28;20032;-79
2022/04/05 02:32:41;;;;;;;20.40;10.95;;;11.10;84.80;;;;;;5057710;28;20078;-79
2022/04/05 02:35:08;;;;;;;20.58;10.23;;;11.10;84.80;;;;;;5057867;28;20031;-79
2022/04/05 02:37:34;;;;;;;22.83;10.80;;;11.10;84.60;;;;;;5057809;28;20053;-79
2022/04/05 02:40:00;;;;;;;21.00;11.10;;;11.10;84.70;;;;;;5057603;28;20502;-79
2022/04/05 02:42:25;;;;;;;22.50;10.80;;;11.20;84.50;;;;;;5057661;28;20029;-79
2022/04/05 02:44:51;;;;;;;21.83;10.23;;;11.10;84.70;;;;;;5057480;28;20490;-79
2022/04/05 02:47:17;;;;;;;24.58;11.80;;;11.10;84.80;;;;;;5062803;28;20024;-79
2022/04/05 02:49:42;;;;;;;25.08;10.95;;;11.10;84.60;;;;;;5077573;28;20054;-79
2022/04/05 02:52:08;;;;;;;19.50;11.23;;;11.20;84.90;;;;;;5077546;28;20513;-79
2022/04/05 02:54:33;;;;;;;26.80;11.32;;;11.20;84.90;;;;;;5058272;28;20046;-79
2022/04/05 02:56:59;;;;;;;25.85;11.60;;;11.20;84.50;;;;;;5077219;28;20146;-78
2022/04/05 02:59:25;;;;;;;23.52;10.88;;;11.20;84.40;;;;;;5078724;28;20036;-79
2022/04/05 03:01:51;;;;;;;27.02;11.50;;;11.20;84.30;;;;;;5097642;28;20025;-79
2022/04/05 03:04:18;;;;;;;21.80;11.15;;;11.20;84.10;;;;;;5097612;28;20158;-79
2022/04/05 03:06:43;;;;;;;24.65;11.90;;;11.30;84.30;;;;;;5079185;28;20490;-79
2022/04/05 03:09:09;;;;;;;25.10;11.63;;;11.20;84.50;;;;;;5075976;28;20056;-79
2022/04/05 03:11:35;;;;;;;28.10;11.85;;;11.20;84.20;;;;;;5056985;28;20095;-79
2022/04/05 03:14:00;;;;;;;27.52;10.52;;;11.20;84.40;;;;;;5057253;28;20033;-79
2022/04/05 03:16:26;;;;;;;24.42;11.05;;;11.30;84.50;;;;;;5062619;28;20107;-79
2022/04/05 03:18:53;;;;;;;29.98;11.52;;;11.30;84.70;;;;;;5077111;28;20037;-79
2022/04/05 03:21:18;;;;;;;19.38;11.15;;;11.20;84.70;;;;;;5070284;28;20025;-79
2022/04/05 03:23:44;;;;;;;22.02;11.68;;;11.20;84.80;;;;;;5039072;28;20035;-79
2022/04/05 03:26:10;;;;;;;25.98;10.77;;;11.20;84.90;;;;;;5056746;28;20024;-79
2022/04/05 03:28:35;;;;;;;23.58;10.88;;;11.30;84.80;;;;;;5056795;28;20025;-79
2022/04/05 03:31:01;;;;;;;24.25;10.82;;;11.30;84.50;;;;;;5074469;28;20491;-79
2022/04/05 03:33:27;;;;;;;24.15;11.10;;;11.40;84.20;;;;;;5076851;28;20025;-79
2022/04/05 03:35:54;;;;;;;19.23;10.13;;;11.40;84.10;;;;;;5047674;28;20021;-79
2022/04/05 03:38:20;;;;;;;27.67;11.70;;;11.30;84.30;;;;;;5038527;28;20553;-79
2022/04/05 03:40:46;;;;;;;24.77;10.50;;;11.40;84.10;;;;;;5056536;28;20033;-79
2022/04/05 03:43:12;;;;;;;24.42;10.98;;;11.40;84.10;;;;;;5056514;28;20032;-79
2022/04/05 03:45:39;;;;;;;26.38;11.20;;;11.40;84.40;;;;;;5056351;28;20032;-79
2022/04/05 03:48:05;;;;;;;24.00;11.40;;;11.40;84.10;;;;;;5068155;28;20028;-78
2022/04/05 03:50:31;;;;;;;21.88;10.77;;;11.40;84.00;;;;;;5076408;28;20566;-79
2022/04/05 03:52:59;;;;;;;25.65;11.02;;;11.40;84.30;;;;;;5065778;28;20083;-79
2022/04/05 03:55:26;;;;;;;23.50;11.07;;;11.40;84.50;;;;;;5056112;28;20025;-79
2022/04/05 03:57:51;;;;;;;23.60;10.10;;;11.40;84.30;;;;;;5038334;28;20044;-79
2022/04/05 04:00:17;;;;;;;23.95;9.38;;;11.40;84.30;;;;;;5081389;28;20027;-79
2022/04/05 04:02:43;;;;;;;20.35;9.73;;;11.40;84.40;;;;;;5061683;28;20033;-79
2022/04/05 04:05:09;;;;;;;23.77;9.60;;;11.40;84.30;;;;;;5056283;28;20025;-79
2022/04/05 04:07:40;;;;;;;21.02;9.38;;;11.50;84.30;;;;;;5056020;28;20064;-79
2022/04/05 04:10:07;;;;;;;21.58;9.65;;;11.40;84.60;;;;;;5064166;28;20025;-79
2022/04/05 04:12:32;;;;;;;23.52;10.10;;;11.40;84.70;;;;;;5058001;28;20522;-79
2022/04/05 04:14:58;;;;;;;24.70;10.68;;;11.50;84.50;;;;;;5058036;28;20056;-79
2022/04/05 04:17:25;;;;;;;22.92;10.02;;;11.40;84.60;;;;;;5076165;28;20028;-79
2022/04/05 04:19:51;;;;;;;23.27;10.43;;;11.40;84.50;;;;;;5061847;28;20695;-83
2022/04/05 04:22:17;;;;;;;27.30;10.98;;;11.50;84.50;;;;;;5038009;28;20078;-80
2022/04/05 04:24:43;;;;;;;19.98;10.35;;;11.40;84.60;;;;;;5055896;28;20064;-82
2022/04/05 04:27:11;;;;;;;22.15;10.40;;;11.40;85.00;;;;;;5055609;28;20090;-80
2022/04/05 04:29:37;;;;;;;21.95;9.73;;;11.30;85.20;;;;;;5055783;28;20052;-79
2022/04/05 04:32:04;;;;;;;22.40;10.60;;;11.40;85.00;;;;;;5061021;28;20051;-79
2022/04/05 04:34:29;;;;;;;22.05;9.70;;;11.40;84.90;;;;;;5056210;28;20017;-81
2022/04/05 04:36:56;;;;;;;25.30;11.00;;;11.50;84.70;;;;;;5065607;28;20086;-80
2022/04/05 04:39:22;;;;;;;22.13;10.32;;;11.50;84.40;;;;;;5037590;28;20039;-81
2022/04/05 04:41:48;;;;;;;23.35;10.38;;;11.50;84.40;;;;;;5055616;28;20044;-81
2022/04/05 04:44:13;;;;;;;20.73;10.75;;;11.60;84.30;;;;;;5068932;28;20082;-80
2022/04/05 04:46:39;;;;;;;23.60;9.75;;;11.50;84.30;;;;;;5058295;28;20141;-83
2022/04/05 04:49:05;;;;;;;22.67;10.55;;;11.50;84.70;;;;;;5057076;28;20020;-80
2022/04/05 04:51:31;;;;;;;24.30;10.40;;;11.50;84.60;;;;;;5057228;28;20025;-81
2022/04/05 04:53:57;;;;;;;24.95;10.48;;;11.50;84.40;;;;;;5062583;28;20036;-81
2022/04/05 04:56:22;;;;;;;27.27;10.05;;;11.60;84.10;;;;;;5055157;28;20082;-79
2022/04/05 04:58:50;;;;;;;23.48;10.07;;;11.60;83.90;;;;;;5048308;28;20052;-78
2022/04/05 05:01:15;;;;;;;18.83;9.35;;;11.60;84.10;;;;;;5095845;28;20101;-78
2022/04/05 05:03:41;;;;;;;18.15;9.75;;;11.60;84.00;;;;;;5057833;28;20029;-81
2022/04/05 05:06:07;;;;;;;19.27;9.18;;;11.70;83.80;;;;;;5042389;28;20028;-78
2022/04/05 05:08:33;;;;;;;21.08;9.52;;;11.70;83.50;;;;;;5054351;28;20082;-78
2022/04/05 05:10:59;;;;;;;17.95;9.32;;;11.60;84.10;;;;;;5049237;28;20021;-78
2022/04/05 05:13:25;;;;;;;21.77;9.45;;;11.70;83.70;;;;;;5059349;28;20556;-78
2022/04/05 05:15:51;;;;;;;19.02;8.93;;;11.70;83.60;;;;;;5055549;28;20699;-78
2022/04/05 05:18:17;;;;;;;19.15;9.43;;;11.70;83.90;;;;;;5039268;28;20029;-79
2022/04/05 05:20:44;;;;;;;21.02;8.68;;;11.70;83.90;;;;;;5066584;28;20029;-81
2022/04/05 05:23:09;;;;;;;20.95;9.65;;;11.70;83.50;;;;;;5054174;28;20036;-81
2022/04/05 05:25:35;;;;;;;19.20;8.98;;;11.70;83.80;;;;;;5049964;28;20030;-81
2022/04/05 05:28:01;;;;;;;20.08;8.73;;;11.70;83.90;;;;;;5058681;28;20036;-78
2022/04/05 05:30:27;;;;;;;21.20;8.68;;;11.70;83.90;;;;;;5045203;28;20032;-76
2022/04/05 05:32:52;;;;;;;19.45;8.38;;;11.70;83.90;;;;;;5053508;28;20056;-77
2022/04/05 05:35:20;;;;;;;15.48;8.90;;;11.60;84.20;;;;;;5055254;28;20028;-77
2022/04/05 05:37:46;;;;;;;21.23;8.18;;;11.70;83.80;;;;;;5066616;28;20097;-77
2022/04/05 05:40:14;;;;;;;21.25;9.55;;;11.70;84.20;;;;;;5068217;28;20025;-77
2022/04/05 05:42:55;;;;;;;17.45;8.75;;;11.70;83.90;;;;;;5055025;28;20032;-76
2022/04/05 05:45:22;;;;;;;19.38;9.40;;;11.70;83.80;;;;;;5035498;28;20028;-78
2022/04/05 05:47:48;;;;;;;19.00;9.27;;;11.70;83.80;;;;;;5062973;28;20063;-78
2022/04/05 05:50:14;;;;;;;19.17;9.00;;;11.70;84.00;;;;;;5057232;28;20025;-78
2022/04/05 05:52:41;;;;;;;21.88;9.43;;;11.70;84.00;;;;;;5036518;28;20035;-78
2022/04/05 05:55:08;;;;;;;21.38;9.32;;;11.80;83.90;;;;;;5069269;28;20130;-78
2022/04/05 05:57:34;;;;;;;26.40;9.60;;;11.80;83.90;;;;;;5074913;28;20048;-78
2022/04/05 06:00:01;;;;;;;23.95;9.52;;;11.70;83.90;;;;;;5086374;28;20028;-78
2022/04/05 06:02:26;;;;;;;22.80;9.82;;;11.80;83.50;;;;;;5098794;28;20475;-78
2022/04/05 06:04:52;;;;;;;28.38;10.57;;;11.80;83.80;;;;;;5080206;28;20097;-78
2022/04/05 06:07:18;;;;;;;20.67;9.85;;;11.80;83.90;;;;;;5078386;28;20035;-78
2022/04/05 06:09:43;;;;;;;21.05;10.73;;;11.80;84.10;;;;;;5060114;28;20021;-78
2022/04/05 06:12:09;;;;;;;23.55;9.98;;;11.80;84.10;;;;;;5072049;28;20025;-78
2022/04/05 06:14:35;;;;;;;19.58;9.32;;;11.80;84.10;;;;;;5078228;28;20024;-78
2022/04/05 06:17:00;;;;;;;21.13;9.15;;;11.80;84.00;;;;;;5073323;28;20060;-78
2022/04/05 06:19:26;;;;;;;25.00;9.60;;;11.80;84.10;;;;;;5058145;28;20036;-78
2022/04/05 06:21:52;;;;;;;24.70;9.73;;;11.80;83.90;;;;;;5058842;28;20492;-78
2022/04/05 06:24:19;;;;;;;23.85;9.88;;;11.90;83.80;;;;;;5078120;28;20449;-78
2022/04/05 06:26:45;;;;;;;22.70;9.45;;;11.80;83.90;;;;;;5077801;28;20551;-78
2022/04/05 06:29:10;;;;;;;21.08;10.05;;;11.80;84.10;;;;;;5060185;28;20029;-78
2022/04/05 06:31:36;;;;;;;24.48;10.43;;;11.90;83.90;;;;;;5074238;28;20075;-78
2022/04/05 06:34:02;;;;;;;20.85;9.85;;;11.90;84.00;;;;;;5057935;28;20036;-77
2022/04/05 06:36:29;;;;;;;16.17;8.45;;;11.90;83.80;;;;;;5039887;28;20060;-78
2022/04/05 06:38:55;;;;;;;22.10;8.98;;;11.90;84.10;;;;;;5057727;28;20499;-78
2022/04/05 06:41:21;;;;;;;21.45;8.90;;;11.90;84.10;;;;;;5063900;28;20031;-78
2022/04/05 06:43:47;;;;;;;20.38;9.23;;;11.90;83.80;;;;;;5077747;28;20077;-78
2022/04/05 06:46:15;;;;;;;18.45;9.02;;;12.00;83.90;;;;;;5077575;28;20371;-78
2022/04/05 06:48:40;;;;;;;18.90;9.38;;;12.00;84.00;;;;;;5077583;28;20107;-78
2022/04/05 06:51:06;;;;;;;21.83;9.15;;;12.00;83.50;;;;;;5071499;28;20121;-78
2022/04/05 06:53:32;;;;;;;18.60;8.30;;;12.00;83.50;;;;;;5057596;28;20029;-78
2022/04/05 06:55:59;;;;;;;20.55;9.07;;;12.00;83.80;;;;;;5039300;28;20049;-78
2022/04/05 06:58:25;;;;;;;17.35;7.88;;;12.00;84.00;;;;;;5057353;28;20044;-78
2022/04/05 07:00:50;;;;;;;18.15;7.68;;;12.00;83.90;;;;;;5084615;28;20044;-78
2022/04/05 07:03:17;;;;;;;16.27;8.52;;;12.00;84.30;;;;;;5077390;28;20511;-78
2022/04/05 07:05:43;;;;;;;20.80;7.72;;;12.00;84.30;;;;;;5076123;28;20028;-78
2022/04/05 07:08:10;;;;;;;14.32;7.32;;;12.10;83.90;;;;;;5057532;28;20033;-78
2022/04/05 07:10:37;;;;;;;15.40;7.55;;;12.10;84.00;;;;;;5057731;28;20108;-78
2022/04/05 07:13:04;;;;;;;17.58;6.90;;;12.20;83.60;;;;;;5077309;28;20158;-78
2022/04/05 07:15:29;;;;;;;15.30;7.30;;;12.20;83.40;;;;;;5077174;28;20032;-78
2022/04/05 07:17:55;;;;;;;17.70;6.97;;;12.30;83.50;;;;;;5077272;28;20494;-78
2022/04/05 07:20:21;;;;;;;15.07;8.05;;;12.30;83.60;;;;;;5064618;28;20029;-78
2022/04/05 07:22:48;;;;;;;12.70;6.38;;;12.30;83.30;;;;;;5057084;28;20032;-78
2022/04/05 07:25:22;;;;;;;23.83;7.63;;;12.30;83.40;;;;;;5038771;28;20032;-78
2022/04/05 07:27:51;;;;;;;14.95;6.50;;;12.30;83.40;;;;;;5056752;28;20029;-78
2022/04/05 07:30:17;;;;;;;14.90;6.97;;;12.50;82.90;;;;;;5056839;28;20483;-78
2022/04/05 07:32:45;;;;;;;15.98;7.50;;;12.40;83.10;;;;;;5038952;28;20045;-78
2022/04/05 07:35:13;;;;;;;19.80;7.13;;;12.50;83.30;;;;;;5056733;28;20021;-78
2022/04/05 07:37:39;;;;;;;17.63;8.38;;;12.60;83.10;;;;;;5056692;28;20029;-78
2022/04/05 07:40:10;;;;;;;21.65;7.95;;;12.60;83.10;;;;;;5038592;28;20036;-78
2022/04/05 07:42:37;;;;;;;16.33;6.80;;;12.60;83.30;;;;;;5056733;28;20032;-78
2022/04/05 07:45:04;;;;;;;18.58;6.65;;;12.50;83.20;;;;;;5038520;28;20029;-78
2022/04/05 07:47:30;;;;;;;17.75;6.93;;;12.50;83.10;;;;;;5063541;28;20043;-78
2022/04/05 07:49:56;;;;;;;19.83;7.80;;;12.60;83.20;;;;;;5076382;28;20049;-78
2022/04/05 07:52:21;;;;;;;13.90;6.63;;;12.80;83.00;;;;;;5057831;28;20024;-78
2022/04/05 07:54:47;;;;;;;18.58;7.43;;;12.80;82.90;;;;;;5076404;28;20103;-78
2022/04/05 07:57:13;;;;;;;13.32;6.80;;;12.90;82.50;;;;;;5063990;28;20126;-78
2022/04/05 07:59:40;;;;;;;15.68;6.80;;;13.00;82.30;;;;;;5038387;28;20071;-78
2022/04/05 08:02:06;;;;;;;17.10;7.45;;;12.90;82.10;;;;;;5038310;28;20032;-78
2022/04/05 08:04:31;;;;;;;15.95;7.18;;;13.00;82.20;;;;;;5038119;28;20029;-78
2022/04/05 08:06:58;;;;;;;11.93;6.03;;;13.00;82.00;;;;;;5056154;28;20261;-78
2022/04/05 08:09:23;;;;;;;19.05;7.13;;;13.00;81.80;;;;;;5056162;28;20028;-78
2022/04/05 08:11:49;;;;;;;13.43;7.10;;;12.90;81.90;;;;;;5045561;28;20033;-78
2022/04/05 08:14:15;;;;;;;11.57;5.97;;;13.00;82.20;;;;;;5060962;28;20020;-78
2022/04/05 08:16:41;;;;;;;13.02;6.97;;;13.00;81.90;;;;;;5075953;28;20024;-78
2022/04/05 08:19:09;;;;;;;13.38;5.82;;;13.00;82.00;;;;;;5072805;28;20090;-78
2022/04/05 08:21:35;;;;;;;12.15;5.65;;;13.00;81.90;;;;;;5055738;28;20029;-77
2022/04/05 08:24:01;;;;;;;13.30;6.40;;;13.10;81.60;;;;;;5037621;28;20029;-78
2022/04/05 08:26:26;;;;;;;13.40;6.45;;;13.10;81.80;;;;;;5055661;28;20036;-77
2022/04/05 08:28:56;;;;;;;16.17;5.95;;;13.20;81.70;;;;;;5055830;28;20033;-78
2022/04/05 08:31:23;;;;;;;13.32;4.90;;;13.20;81.60;;;;;;5055709;28;20051;-78
2022/04/05 08:33:49;;;;;;;13.65;5.55;;;13.20;81.30;;;;;;5069959;28;20029;-78
2022/04/05 08:36:15;;;;;;;11.30;5.68;;;13.20;81.10;;;;;;5057698;28;20415;-78
2022/04/05 08:38:40;;;;;;;9.50;5.10;;;13.20;81.40;;;;;;5075732;28;20454;-78
2022/04/05 08:41:07;;;;;;;9.90;4.25;;;13.20;81.40;;;;;;5067261;28;20525;-78
2022/04/05 08:43:34;;;;;;;12.98;5.22;;;13.30;81.40;;;;;;5055748;28;20100;-78
2022/04/05 08:46:01;;;;;;;9.65;4.20;;;13.30;81.10;;;;;;5055586;28;20442;-78
2022/04/05 08:48:29;;;;;;;8.27;4.82;;;13.30;81.10;;;;;;5069174;28;20076;-78
2022/04/05 08:50:57;;;;;;;8.93;4.43;;;13.30;80.70;;;;;;5075551;28;20063;-78
2022/04/05 08:53:24;;;;;;;14.65;4.95;;;13.30;81.00;;;;;;5075518;28;20023;-78
2022/04/05 08:55:51;;;;;;;9.93;3.72;;;13.30;80.80;;;;;;5065481;28;20045;-78
2022/04/05 08:58:17;;;;;;;13.80;3.90;;;13.30;81.00;;;;;;5055371;28;20032;-78
2022/04/05 09:00:43;;;;;;;9.43;4.20;;;13.30;80.60;;;;;;5052068;28;20040;-78
2022/04/05 09:03:09;;;;;;;9.10;5.00;;;13.30;81.00;;;;;;5057178;28;20033;-78
2022/04/05 09:05:39;;;;;;;7.72;4.57;;;13.30;81.00;;;;;;5075655;28;20031;-77
2022/04/05 09:08:26;;;;;;;9.13;4.75;;;13.20;81.00;;;;;;5075342;28;20494;-77
2022/04/05 09:10:53;;;;;;;9.45;4.30;;;13.20;81.20;;;;;;5059242;28;20020;-78
2022/04/05 09:13:24;;;;;;;6.57;4.40;;;13.20;81.00;;;;;;5075308;28;20871;-78
2022/04/05 09:15:52;;;;;;;11.68;4.28;;;13.30;81.10;;;;;;5056690;28;20047;-78
2022/04/05 09:18:39;;;;;;;8.68;3.70;;;13.30;81.10;;;;;;5037725;28;20025;-78
2022/04/05 09:21:07;;;;;;;9.43;4.13;;;13.20;80.40;;;;;;5055168;28;20021;-78
2022/04/05 09:23:35;;;;;;;9.88;3.97;;;13.30;80.90;;;;;;5037149;28;20025;-78
2022/04/05 09:26:03;;;;;;;10.35;4.15;;;13.40;80.60;;;;;;5055039;28;20499;-78
2022/04/05 09:28:41;;;;;;;8.00;4.43;;;13.50;80.40;;;;;;5055134;28;20056;-78
2022/04/05 09:31:15;;;;;;;9.20;3.97;;;13.60;79.70;;;;;;5055000;28;20079;-78
2022/04/05 09:34:02;;;;;;;9.52;4.47;;;13.60;79.80;;;;;;5056144;28;20108;-78
2022/04/05 09:36:37;;;;;;;10.60;3.97;;;13.70;80.10;;;;;;5058919;28;20040;-78
2022/04/05 09:39:20;;;;;;;10.10;4.30;;;13.50;80.20;;;;;;5059090;28;20025;-78
2022/04/05 09:41:49;;;;;;;10.63;4.40;;;13.50;80.70;;;;;;5040974;28;20032;-77
2022/04/05 09:44:28;;;;;;;14.43;3.97;;;13.60;80.50;;;;;;5058984;28;20097;-78
2022/04/05 09:47:03;;;;;;;6.78;4.00;;;13.70;80.60;;;;;;5060928;28;20084;-78
2022/04/05 09:49:35;;;;;;;10.00;3.70;;;13.70;79.70;;;;;;5078850;28;20029;-78
2022/04/05 09:52:01;;;;;;;10.63;4.07;;;13.70;79.80;;;;;;5059838;28;20505;-77
2022/04/05 09:54:29;;;;;;;8.60;3.95;;;13.70;80.10;;;;;;5078650;28;20016;-78
2022/04/05 09:57:07;;;;;;;9.85;4.82;;;13.80;79.30;;;;;;5058747;28;20057;-78
2022/04/05 09:59:39;;;;;;;9.52;4.30;;;14.20;79.10;;;;;;5071542;28;20041;-78
2022/04/05 10:02:14;;;;;;;8.05;4.30;;;14.40;77.90;;;;;;5098772;28;20371;-78
2022/04/05 10:05:07;;;;;;;11.15;4.10;;;14.60;78.00;;;;;;5067668;28;20097;-78
2022/04/05 10:07:34;;;;;;;6.70;3.25;;;14.60;77.50;;;;;;5058404;28;20503;-78
2022/04/05 10:10:03;;;;;;;7.07;3.30;;;14.60;77.30;;;;;;5042477;28;20025;-78
2022/04/05 10:12:28;;;;;;;6.10;2.97;;;14.60;77.30;;;;;;5074755;28;20025;-78
2022/04/05 10:14:56;;;;;;;4.03;2.35;;;14.40;76.30;;;;;;5078516;28;20074;-78
2022/04/05 10:17:26;;;;;;;5.25;2.65;;;14.40;76.30;;;;;;5071775;28;20058;-78
2022/04/05 10:19:53;;;;;;;8.32;3.40;;;14.30;76.00;;;;;;5043635;28;20502;-78
2022/04/05 10:22:22;;;;;;;8.70;2.53;;;14.30;76.10;;;;;;5040096;28;20044;-78
2022/04/05 10:24:53;;;;;;;8.20;2.58;;;14.30;76.00;;;;;;5040100;28;20020;-78
2022/04/05 10:27:20;;;;;;;5.35;2.67;;;14.10;77.10;;;;;;5073169;28;20036;-78
2022/04/05 10:30:03;;;;;;;7.40;3.05;;;14.10;77.50;;;;;;5078128;28;20025;-78
2022/04/05 10:32:37;;;;;;;5.65;3.60;;;14.00;77.70;;;;;;5058706;28;20025;-78
2022/04/05 10:35:05;;;;;;;5.88;2.58;;;14.10;77.80;;;;;;5058012;28;20059;-79
2022/04/05 10:37:38;;;;;;;6.25;3.05;;;14.10;77.50;;;;;;5057815;28;20029;-78
2022/04/05 10:40:05;;;;;;;6.70;3.15;;;14.00;77.60;;;;;;5062616;28;20562;-79
2022/04/05 10:42:36;;;;;;;5.28;3.08;;;14.00;77.40;;;;;;5077834;28;20021;-78
2022/04/05 10:45:25;;;;;;;8.70;4.70;;;14.00;77.60;;;;;;5062311;28;20118;-78
2022/04/05 10:48:11;;;;;;;7.90;3.70;;;14.00;77.60;;;;;;5049568;28;20088;-78
2022/04/05 10:50:37;;;;;;;4.05;2.42;;;13.90;77.60;;;;;;5072407;28;20514;-78
2022/04/05 10:53:21;;;;;;;8.30;3.13;;;14.00;77.50;;;;;;5057573;28;20021;-78
2022/04/05 10:56:10;;;;;;;6.00;3.47;;;14.00;77.10;;;;;;5057164;28;20124;-78
2022/04/05 10:58:38;;;;;;;7.53;3.85;;;14.00;77.20;;;;;;5057552;28;20025;-78
2022/04/05 11:01:18;;;;;;;9.43;3.58;;;13.90;77.30;;;;;;5057678;28;20033;-78
2022/04/05 11:04:09;;;;;;;9.80;3.73;;;13.90;76.80;;;;;;5057422;28;20040;-78
2022/04/05 11:07:02;;;;;;;7.53;4.15;;;14.00;76.90;;;;;;5057213;28;20029;-78
2022/04/05 11:09:30;;;;;;;8.68;4.13;;;14.00;76.70;;;;;;5057171;28;20033;-78
2022/04/05 11:11:56;;;;;;;9.52;4.15;;;14.00;76.50;;;;;;5068905;28;20407;-78
2022/04/05 11:14:41;;;;;;;7.35;4.03;;;14.20;76.20;;;;;;5069660;28;20029;-79
2022/04/05 11:17:09;;;;;;;6.68;3.78;;;14.20;75.40;;;;;;5057154;28;20025;-78
2022/04/05 11:19:40;;;;;;;9.63;5.00;;;14.30;75.70;;;;;;5057131;28;20029;-78
2022/04/05 11:22:25;;;;;;;6.47;4.40;;;14.20;75.40;;;;;;5057038;28;20403;-78
2022/04/05 11:25:10;;;;;;;5.25;3.92;;;14.20;75.40;;;;;;5057058;28;20433;-78
2022/04/05 11:27:48;;;;;;;10.48;4.40;;;14.10;75.90;;;;;;5038838;28;20720;-78
2022/04/05 11:30:23;;;;;;;7.10;3.92;;;14.00;76.60;;;;;;5056719;28;20013;-78
2022/04/05 11:33:10;;;;;;;7.30;4.05;;;13.90;77.20;;;;;;5056763;28;20043;-78
2022/04/05 11:35:36;;;;;;;11.73;4.00;;;13.90;77.30;;;;;;5069013;28;20020;-78
2022/04/05 11:38:03;;;;;;;7.50;3.88;;;13.90;77.20;;;;;;5076762;28;20036;-78
2022/04/05 11:40:30;;;;;;;9.05;3.88;;;14.00;77.20;;;;;;5065996;28;20487;-79
2022/04/05 11:43:00;;;;;;;8.57;4.13;;;14.00;77.30;;;;;;5056654;28;20118;-78
2022/04/05 11:45:28;;;;;;;10.30;3.42;;;14.00;76.60;;;;;;5056701;28;20025;-78
2022/04/05 11:47:54;;;;;;;7.43;3.58;;;14.00;76.80;;;;;;5066508;28;20032;-78
2022/04/05 11:50:20;;;;;;;8.25;4.47;;;14.00;76.40;;;;;;5054488;28;20021;-78
2022/04/05 11:52:46;;;;;;;7.22;3.78;;;14.00;76.20;;;;;;5056396;28;20035;-78
2022/04/05 11:58:10;;;;;;;11.75;3.42;;;14.10;76.20;;;;;;5055557;28;20102;-78
2022/04/05 12:00:52;;;;;;;5.97;3.33;;;14.30;75.50;;;;;;5086712;28;20517;-78
2022/04/05 12:03:18;;;;;;;5.75;3.13;;;14.50;75.10;;;;;;5074017;28;20040;-78
2022/04/05 12:05:44;;;;;;;9.77;3.42;;;14.60;74.80;;;;;;5038413;28;20060;-79
2022/04/05 12:08:13;;;;;;;11.35;3.97;;;14.50;74.90;;;;;;5056027;28;20098;-79
2022/04/05 12:10:43;;;;;;;9.43;3.47;;;14.50;74.70;;;;;;5066882;28;20025;-79
2022/04/05 12:13:09;;;;;;;6.32;3.45;;;14.60;74.50;;;;;;5056021;28;20063;-78
2022/04/05 12:15:36;;;;;;;7.18;3.50;;;14.90;74.00;;;;;;5056737;28;20028;-78
2022/04/05 12:18:20;;;;;;;9.13;3.50;;;15.10;73.40;;;;;;5057815;28;20479;-78
2022/04/05 12:21:08;;;;;;;8.15;3.63;;;15.10;72.00;;;;;;5075964;28;20029;-78
2022/04/05 12:23:41;;;;;;;6.97;3.20;;;15.10;73.00;;;;;;5072117;28;20032;-79
2022/04/05 12:26:21;;;;;;;10.82;4.22;;;15.00;72.30;;;;;;5055852;28;20139;-78
2022/04/05 12:28:50;;;;;;;5.30;3.30;;;14.90;72.60;;;;;;5055832;28;20025;-78
2022/04/05 12:31:27;;;;;;;8.85;3.40;;;14.80;72.30;;;;;;5040640;28;20047;-78
2022/04/05 12:33:59;;;;;;;5.63;3.70;;;14.70;71.80;;;;;;5075622;28;20023;-78
2022/04/05 12:36:54;;;;;;;7.35;3.92;;;14.60;71.90;;;;;;5075832;28;20052;-79
2022/04/05 12:39:26;;;;;;;8.65;4.18;;;14.60;71.80;;;;;;5050123;28;20067;-78
2022/04/05 12:41:59;;;;;;;16.08;4.25;;;14.70;71.90;;;;;;5037685;28;20468;-78
2022/04/05 12:44:30;;;;;;;6.32;3.65;;;14.80;71.10;;;;;;5037465;28;20044;-78
2022/04/05 12:46:58;;;;;;;6.38;3.05;;;15.10;71.40;;;;;;5057819;28;20025;-78